createdAt,value
2023-01-15T00:00:17.434Z,0.70
2023-01-15T00:02:46.806Z,0.52
2023-01-15T00:05:16.272Z,0.77
2023-01-15T00:07:47.120Z,0.52
2023-01-15T00:10:16.581Z,0.50
2023-01-15T00:12:45.672Z,0.60
2023-01-15T00:15:15.381Z,0.60
2023-01-15T00:17:44.701Z,0.65
2023-01-15T00:20:14.512Z,0.50
2023-01-15T00:22:43.485Z,0.40
2023-01-15T00:25:31.237Z,0.40
2023-01-15T00:28:01.753Z,0.35
2023-01-15T00:30:31.435Z,0.47
2023-01-15T00:33:01.873Z,0.25
2023-01-15T00:35:30.993Z,0.57
2023-01-15T00:38:00.452Z,0.30
2023-01-15T00:40:31.185Z,0.50
2023-01-15T00:43:00.508Z,0.50
2023-01-15T00:45:29.787Z,1.00
2023-01-15T00:47:58.864Z,0.43
2023-01-15T00:50:29.797Z,0.57
2023-01-15T00:53:00.848Z,0.63
2023-01-15T00:55:34.468Z,0.50
2023-01-15T00:58:03.618Z,0.63
2023-01-15T01:00:32.846Z,0.90
2023-01-15T01:03:02.137Z,1.13
2023-01-15T01:05:33.330Z,0.55
2023-01-15T01:08:02.558Z,0.80
2023-01-15T01:10:31.775Z,0.50
2023-01-15T01:13:02.833Z,2.45
2023-01-15T01:15:31.913Z,0.70
2023-01-15T01:18:01.047Z,0.73
2023-01-15T01:20:30.229Z,0.50
2023-01-15T01:22:59.543Z,0.82
2023-01-15T01:25:29.369Z,0.70
2023-01-15T01:28:00.474Z,0.65
2023-01-15T01:30:30.942Z,0.43
2023-01-15T01:33:00.105Z,1.55
2023-01-15T01:35:29.169Z,0.68
2023-01-15T01:37:58.145Z,0.57
2023-01-15T01:40:27.597Z,0.65
2023-01-15T01:42:56.821Z,0.60
2023-01-15T01:45:28.546Z,0.55
2023-01-15T01:48:01.284Z,0.50
2023-01-15T01:50:32.107Z,0.57
2023-01-15T01:53:02.138Z,0.70
2023-01-15T01:55:32.514Z,0.80
2023-01-15T01:58:02.454Z,0.88
2023-01-15T02:00:32.589Z,0.77
2023-01-15T02:03:03.895Z,1.33
2023-01-15T02:05:34.389Z,0.70
2023-01-15T02:08:03.532Z,0.90
2023-01-15T02:10:32.521Z,0.45
2023-01-15T02:13:04.400Z,0.50
2023-01-15T02:15:35.828Z,0.65
2023-01-15T02:18:10.841Z,0.65
2023-01-15T02:20:41.649Z,0.60
2023-01-15T02:23:25.436Z,0.50
2023-01-15T02:26:04.618Z,0.60
2023-01-15T02:28:37.231Z,0.50
2023-01-15T02:31:12.265Z,0.68
2023-01-15T02:33:43.031Z,0.73
2023-01-15T02:36:14.939Z,0.50
2023-01-15T02:38:47.437Z,0.80
2023-01-15T02:41:18.112Z,0.80
2023-01-15T02:43:53.156Z,0.40
2023-01-15T02:46:28.374Z,0.60
2023-01-15T02:49:00.381Z,2.00
2023-01-15T02:51:38.328Z,0.63
2023-01-15T02:54:12.141Z,0.88
2023-01-15T02:56:44.874Z,0.60
2023-01-15T02:59:18.620Z,0.90
2023-01-15T03:01:50.315Z,1.38
2023-01-15T03:04:22.987Z,0.60
2023-01-15T03:06:54.189Z,1.15
2023-01-15T03:09:24.734Z,1.33
2023-01-15T03:12:01.057Z,1.20
2023-01-15T03:14:36.198Z,0.57
2023-01-15T03:17:08.609Z,0.32
2023-01-15T03:19:41.194Z,0.60
2023-01-15T03:22:18.116Z,0.90
2023-01-15T03:24:49.284Z,0.52
2023-01-15T03:27:20.755Z,1.42
2023-01-15T03:29:56.233Z,0.70
2023-01-15T03:32:25.504Z,0.52
2023-01-15T03:34:55.544Z,1.27
2023-01-15T03:37:27.485Z,0.80
2023-01-15T03:42:35.894Z,0.63
2023-01-15T03:45:09.115Z,0.52
2023-01-15T03:47:44.605Z,0.45
2023-01-15T03:50:20.506Z,0.73
2023-01-15T03:52:53.119Z,0.50
2023-01-15T03:55:24.723Z,1.00
2023-01-15T03:58:01.978Z,0.80
2023-01-15T04:00:38.547Z,0.47
2023-01-15T04:03:10.136Z,1.08
2023-01-15T04:05:39.617Z,0.82
2023-01-15T04:08:10.539Z,0.55
2023-01-15T04:10:40.132Z,0.40
2023-01-15T04:13:12.449Z,1.08
2023-01-15T04:15:48.008Z,0.60
2023-01-15T04:18:23.537Z,2.22
2023-01-15T04:23:31.575Z,0.50
2023-01-15T04:26:06.342Z,0.60
2023-01-15T04:29:00.261Z,0.50
2023-01-15T04:31:32.542Z,1.20
2023-01-15T04:34:02.602Z,0.47
2023-01-15T04:36:36.627Z,0.57
2023-01-15T04:39:09.234Z,0.93
2023-01-15T04:44:33.381Z,0.98
2023-01-15T04:47:07.468Z,0.68
2023-01-15T04:49:39.566Z,0.50
2023-01-15T04:52:11.873Z,0.65
2023-01-15T04:54:41.711Z,0.50
2023-01-15T04:57:13.213Z,0.45
2023-01-15T04:59:45.398Z,0.45
2023-01-15T05:02:17.197Z,0.40
2023-01-15T05:04:49.136Z,1.40
2023-01-15T05:07:19.912Z,0.30
2023-01-15T05:09:51.839Z,0.60
2023-01-15T05:12:21.113Z,0.60
2023-01-15T05:14:50.343Z,0.50
2023-01-15T05:17:20.886Z,0.70
2023-01-15T05:19:49.995Z,1.27
2023-01-15T05:22:18.936Z,0.85
2023-01-15T05:24:48.038Z,1.27
2023-01-15T05:27:17.474Z,0.40
2023-01-15T05:29:48.007Z,0.80
2023-01-15T05:32:17.129Z,0.43
2023-01-15T05:34:48.882Z,0.30
2023-01-15T05:37:18.269Z,0.60
2023-01-15T05:39:47.443Z,0.50
2023-01-15T05:42:16.668Z,0.43
2023-01-15T05:44:45.711Z,0.50
2023-01-15T05:47:15.338Z,0.35
2023-01-15T05:49:44.526Z,0.68
2023-01-15T05:52:14.858Z,0.22
2023-01-15T05:54:43.935Z,0.55
2023-01-15T05:57:13.677Z,0.28
2023-01-15T05:59:42.842Z,0.30
2023-01-15T06:02:11.981Z,0.50
2023-01-15T06:04:41.972Z,0.30
2023-01-15T06:07:11.093Z,0.40
2023-01-15T06:09:41.682Z,0.50
2023-01-15T06:12:10.688Z,0.50
2023-01-15T06:14:39.792Z,0.30
2023-01-15T06:17:09.025Z,0.38
2023-01-15T06:19:38.135Z,0.50
2023-01-15T06:22:09.611Z,0.47
2023-01-15T06:24:40.050Z,0.35
2023-01-15T06:27:10.584Z,0.77
2023-01-15T06:29:39.728Z,0.45
2023-01-15T06:32:09.008Z,0.50
2023-01-15T06:34:38.089Z,0.40
2023-01-15T06:37:07.411Z,0.50
2023-01-15T06:39:36.579Z,0.43
2023-01-15T06:42:23.465Z,0.50
2023-01-15T06:45:12.979Z,0.50
2023-01-15T06:47:42.220Z,0.70
2023-01-15T06:50:11.868Z,0.38
2023-01-15T06:52:40.950Z,0.38
2023-01-15T06:55:11.696Z,0.82
2023-01-15T06:57:40.966Z,0.40
2023-01-15T07:00:14.504Z,0.50
2023-01-15T07:02:43.655Z,0.63
2023-01-15T07:05:15.281Z,0.40
2023-01-15T07:07:44.470Z,0.40
2023-01-15T07:10:13.923Z,0.40
2023-01-15T07:12:43.036Z,0.40
2023-01-15T07:15:12.695Z,1.10
2023-01-15T07:17:43.415Z,0.30
2023-01-15T07:20:13.360Z,0.40
2023-01-15T07:22:42.432Z,0.30
2023-01-15T07:25:12.247Z,0.47
2023-01-15T07:27:41.352Z,0.30
2023-01-15T07:30:10.900Z,0.30
2023-01-15T07:32:39.951Z,2.15
2023-01-15T07:35:11.864Z,0.40
2023-01-15T07:37:41.074Z,0.50
2023-01-15T07:40:11.341Z,0.55
2023-01-15T07:42:57.939Z,0.60
2023-01-15T07:45:44.473Z,0.30
2023-01-15T07:48:31.025Z,0.70
2023-01-15T07:51:01.544Z,0.40
2023-01-15T07:53:30.600Z,0.47
2023-01-15T07:55:59.638Z,0.55
2023-01-15T07:58:32.078Z,0.47
2023-01-15T08:01:01.375Z,0.63
2023-01-15T08:03:32.987Z,1.00
2023-01-15T08:06:03.567Z,0.55
2023-01-15T08:08:32.864Z,0.65
2023-01-15T08:11:21.221Z,0.45
2023-01-15T08:14:16.499Z,0.40
2023-01-15T08:16:45.598Z,0.40
2023-01-15T08:19:14.893Z,0.50
2023-01-15T08:21:45.454Z,0.45
2023-01-15T08:24:14.517Z,0.60
2023-01-15T08:26:43.733Z,0.50
2023-01-15T08:29:12.764Z,0.40
2023-01-15T08:31:41.796Z,0.30
2023-01-15T08:34:11.454Z,0.52
2023-01-15T08:36:40.630Z,0.50
2023-01-15T08:39:11.776Z,0.63
2023-01-15T08:41:40.836Z,0.60
2023-01-15T08:44:09.761Z,0.47
2023-01-15T08:46:38.809Z,0.70
2023-01-15T08:49:08.084Z,0.57
2023-01-15T08:51:37.615Z,0.47
2023-01-15T08:54:07.493Z,0.80
2023-01-15T08:56:38.460Z,1.35
2023-01-15T08:59:08.347Z,0.80
2023-01-15T09:01:37.890Z,0.70
2023-01-15T09:04:07.521Z,0.63
2023-01-15T09:06:37.096Z,1.05
2023-01-15T09:09:06.679Z,0.57
2023-01-15T09:11:36.280Z,0.80
2023-01-15T09:14:06.908Z,0.77
2023-01-15T09:16:35.989Z,1.48
2023-01-15T09:19:05.129Z,0.80
2023-01-15T09:21:37.406Z,0.80
2023-01-15T09:24:06.970Z,0.60
2023-01-15T09:26:37.729Z,1.05
2023-01-15T09:29:09.301Z,0.95
2023-01-15T09:31:38.731Z,0.52
2023-01-15T09:34:08.421Z,0.60
2023-01-15T09:36:40.389Z,0.90
2023-01-15T09:39:12.522Z,0.90
2023-01-15T09:42:07.901Z,0.90
2023-01-15T09:44:50.738Z,1.02
2023-01-15T09:47:23.606Z,0.80
2023-01-15T09:49:59.797Z,0.50
2023-01-15T09:52:34.029Z,0.70
2023-01-15T09:55:09.967Z,0.52
2023-01-15T09:57:39.622Z,0.60
2023-01-15T10:00:16.113Z,0.60
2023-01-15T10:02:48.501Z,1.10
2023-01-15T10:05:19.867Z,0.85
2023-01-15T10:07:56.803Z,0.80
2023-01-15T10:10:30.397Z,0.60
2023-01-15T10:13:02.642Z,0.80
2023-01-15T10:15:37.842Z,1.15
2023-01-15T10:18:09.050Z,1.92
2023-01-15T10:20:55.998Z,0.50
2023-01-15T10:23:36.818Z,0.70
2023-01-15T10:26:16.621Z,1.27
2023-01-15T10:29:05.709Z,1.20
2023-01-15T10:31:50.163Z,1.58
2023-01-15T10:34:43.557Z,0.90
2023-01-15T10:37:14.394Z,0.82
2023-01-15T10:39:48.830Z,0.50
2023-01-15T10:42:25.897Z,1.20
2023-01-15T10:44:59.982Z,1.20
2023-01-15T10:47:32.781Z,1.27
2023-01-15T10:50:04.756Z,0.70
2023-01-15T10:55:07.774Z,0.60
2023-01-15T10:57:42.342Z,0.95
2023-01-15T11:00:13.241Z,1.00
2023-01-15T11:02:45.118Z,0.68
2023-01-15T11:05:17.102Z,0.90
2023-01-15T11:08:10.427Z,0.90
2023-01-15T11:10:37.791Z,1.15
2023-01-15T11:13:37.159Z,0.85
2023-01-15T11:16:38.984Z,0.60
2023-01-15T11:19:26.771Z,1.80
2023-01-15T11:21:57.420Z,1.10
2023-01-15T11:24:27.522Z,1.30
2023-01-15T11:26:56.852Z,1.17
2023-01-15T11:29:30.995Z,1.02
2023-01-15T11:32:00.531Z,1.10
2023-01-15T11:34:30.079Z,2.03
2023-01-15T11:37:08.984Z,1.00
2023-01-15T11:39:41.025Z,1.90
2023-01-15T11:45:16.002Z,1.08
2023-01-15T11:48:10.132Z,1.30
2023-01-15T11:50:49.636Z,0.77
2023-01-15T11:53:23.219Z,0.82
2023-01-15T11:56:00.013Z,0.70
2023-01-15T11:58:31.019Z,1.17
2023-01-15T12:01:02.718Z,0.77
2023-01-15T12:03:36.652Z,1.10
2023-01-15T12:06:13.664Z,1.08
2023-01-15T12:08:51.594Z,2.13
2023-01-15T12:11:37.112Z,1.30
2023-01-15T12:14:25.362Z,0.50
2023-01-15T12:16:59.457Z,0.55
2023-01-15T12:19:33.218Z,0.70
2023-01-15T12:22:18.016Z,0.80
2023-01-15T12:25:06.226Z,0.88
2023-01-15T12:27:56.259Z,2.13
2023-01-15T12:30:30.337Z,0.52
2023-01-15T12:33:02.720Z,0.60
2023-01-15T12:35:32.983Z,0.95
2023-01-15T12:38:05.010Z,0.93
2023-01-15T12:40:42.412Z,1.45
2023-01-15T12:43:33.991Z,1.05
2023-01-15T12:46:04.295Z,0.70
2023-01-15T12:48:37.196Z,1.15
2023-01-15T12:51:09.322Z,0.73
2023-01-15T12:53:41.470Z,1.45
2023-01-15T12:56:16.469Z,0.80
2023-01-15T12:58:47.250Z,1.40
2023-01-15T13:01:19.567Z,1.20
2023-01-15T13:03:53.943Z,0.70
2023-01-15T13:06:28.715Z,0.80
2023-01-15T13:09:01.344Z,0.68
2023-01-15T13:11:32.782Z,0.73
2023-01-15T13:14:02.247Z,1.00
2023-01-15T13:16:42.877Z,0.88
2023-01-15T13:19:19.585Z,1.33
2023-01-15T13:21:52.069Z,1.00
2023-01-15T13:24:28.851Z,0.65
2023-01-15T13:27:05.842Z,1.00
2023-01-15T13:29:40.992Z,0.88
2023-01-15T13:32:13.585Z,0.60
2023-01-15T13:34:44.995Z,1.02
2023-01-15T13:37:17.986Z,1.27
2023-01-15T13:39:48.492Z,1.35
2023-01-15T13:42:34.396Z,1.55
2023-01-15T13:45:18.892Z,1.27
2023-01-15T13:47:51.954Z,0.60
2023-01-15T13:50:24.995Z,1.20
2023-01-15T13:53:01.747Z,1.30
2023-01-15T13:55:33.543Z,0.55
2023-01-15T13:58:04.159Z,0.85
2023-01-15T14:00:36.185Z,0.95
2023-01-15T14:05:35.203Z,0.50
2023-01-15T14:08:16.622Z,0.73
2023-01-15T14:10:50.191Z,0.77
2023-01-15T14:13:26.568Z,0.80
2023-01-15T14:16:00.706Z,0.70
2023-01-15T14:18:41.507Z,0.82
2023-01-15T14:21:21.474Z,1.05
2023-01-15T14:23:59.423Z,0.88
2023-01-15T14:26:31.377Z,0.95
2023-01-15T14:29:05.614Z,1.02
2023-01-15T14:31:40.941Z,0.93
2023-01-15T14:34:22.252Z,1.52
2023-01-15T14:36:57.822Z,0.80
2023-01-15T14:39:35.545Z,2.65
2023-01-15T14:42:25.997Z,0.93
2023-01-15T14:45:02.204Z,0.70
2023-01-15T14:47:34.514Z,0.93
2023-01-15T14:50:06.193Z,1.13
2023-01-15T14:52:35.763Z,0.90
2023-01-15T14:55:10.901Z,1.48
2023-01-15T14:57:41.038Z,0.90
2023-01-15T15:00:16.973Z,1.50
2023-01-15T15:02:47.266Z,1.08
2023-01-15T15:05:18.225Z,1.92
2023-01-15T15:07:48.550Z,1.80
2023-01-15T15:10:22.483Z,0.80
2023-01-15T15:12:56.298Z,0.95
2023-01-15T15:15:35.733Z,0.98
2023-01-15T15:18:08.173Z,0.52
2023-01-15T15:20:45.554Z,0.98
2023-01-15T15:23:17.445Z,1.10
2023-01-15T15:25:53.919Z,0.85
2023-01-15T15:28:23.527Z,1.65
2023-01-15T15:30:54.939Z,0.80
2023-01-15T15:33:27.951Z,0.90
2023-01-15T15:35:58.161Z,0.80
2023-01-15T15:38:28.111Z,1.00
2023-01-15T15:40:59.071Z,1.38
2023-01-15T15:43:48.143Z,2.53
2023-01-15T15:46:46.557Z,3.33
2023-01-15T15:49:15.983Z,3.33
2023-01-15T15:51:48.791Z,3.55
2023-01-15T15:54:19.101Z,4.15
2023-01-15T15:56:57.836Z,3.45
2023-01-15T15:59:35.544Z,3.78
2023-01-15T16:02:18.984Z,1.08
2023-01-15T16:04:49.227Z,1.88
2023-01-15T16:07:25.661Z,1.63
2023-01-15T16:09:55.781Z,1.73
2023-01-15T16:12:25.658Z,1.83
2023-01-15T16:14:56.016Z,1.65
2023-01-15T16:17:28.482Z,2.45
2023-01-15T16:19:58.611Z,4.05
2023-01-15T16:22:30.295Z,3.20
2023-01-15T16:24:59.959Z,2.22
2023-01-15T16:27:30.689Z,2.70
2023-01-15T16:30:03.828Z,2.38
2023-01-15T16:32:36.993Z,2.20
2023-01-15T16:35:08.287Z,2.65
2023-01-15T16:37:37.862Z,2.58
2023-01-15T16:40:07.581Z,2.03
2023-01-15T16:42:39.893Z,2.33
2023-01-15T16:45:20.343Z,1.90
2023-01-15T16:48:04.345Z,2.58
2023-01-15T16:50:34.917Z,2.90
2023-01-15T16:53:04.641Z,3.15
2023-01-15T16:55:38.027Z,3.67
2023-01-15T16:58:20.256Z,3.08
2023-01-15T17:00:50.501Z,2.45
2023-01-15T17:03:24.584Z,2.40
2023-01-15T17:05:55.512Z,2.05
2023-01-15T17:08:26.162Z,1.77
2023-01-15T17:10:56.844Z,2.63
2023-01-15T17:13:30.070Z,3.30
2023-01-15T17:16:04.293Z,2.35
2023-01-15T17:18:35.666Z,2.55
2023-01-15T17:21:04.983Z,1.35
2023-01-15T17:23:38.988Z,2.30
2023-01-15T17:26:19.037Z,1.63
2023-01-15T17:28:48.345Z,1.75
2023-01-15T17:31:24.631Z,2.10
2023-01-15T17:33:57.794Z,1.95
2023-01-15T17:36:27.899Z,2.53
2023-01-15T17:38:57.376Z,2.05
2023-01-15T17:41:26.512Z,4.00
2023-01-15T17:43:55.516Z,3.40
2023-01-15T17:46:24.559Z,3.05
2023-01-15T17:48:53.673Z,3.13
2023-01-15T17:51:26.497Z,3.17
2023-01-15T17:53:55.799Z,2.05
2023-01-15T17:56:42.853Z,2.28
2023-01-15T17:59:30.625Z,1.85
2023-01-15T18:02:32.085Z,1.90
2023-01-15T18:05:18.888Z,1.93
2023-01-15T18:07:49.854Z,2.33
2023-01-15T18:10:21.236Z,2.93
2023-01-15T18:12:50.919Z,2.78
2023-01-15T18:15:20.268Z,2.25
2023-01-15T18:17:52.300Z,1.77
2023-01-15T18:20:21.631Z,1.30
2023-01-15T18:22:52.107Z,2.13
2023-01-15T18:25:21.224Z,1.42
2023-01-15T18:27:51.405Z,0.93
2023-01-15T18:30:20.720Z,1.02
2023-01-15T18:32:49.967Z,1.00
2023-01-15T18:35:19.575Z,1.02
2023-01-15T18:37:48.639Z,1.48
2023-01-15T18:40:20.322Z,1.60
2023-01-15T18:43:07.162Z,1.35
2023-01-15T18:45:53.797Z,1.60
2023-01-15T18:48:22.980Z,1.70
2023-01-15T18:50:55.711Z,1.35
2023-01-15T18:53:25.004Z,1.38
2023-01-15T18:55:55.688Z,1.20
2023-01-15T18:58:24.781Z,1.33
2023-01-15T19:00:54.230Z,2.17
2023-01-15T19:03:23.803Z,1.80
2023-01-15T19:05:53.303Z,1.50
2023-01-15T19:08:23.800Z,2.28
2023-01-15T19:10:52.995Z,2.25
2023-01-15T19:13:23.439Z,1.63
2023-01-15T19:16:13.606Z,1.63
2023-01-15T19:18:58.377Z,1.52
2023-01-15T19:21:28.625Z,2.17
2023-01-15T19:23:57.735Z,1.50
2023-01-15T19:26:26.864Z,1.15
2023-01-15T19:29:00.316Z,2.20
2023-01-15T19:31:39.455Z,1.73
2023-01-15T19:34:32.584Z,1.40
2023-01-15T19:37:01.336Z,1.80
2023-01-15T19:39:31.169Z,2.08
2023-01-15T19:42:18.122Z,1.48
2023-01-15T19:45:06.555Z,1.20
2023-01-15T19:47:54.486Z,1.75
2023-01-15T19:50:26.383Z,2.00
2023-01-15T19:52:56.956Z,1.83
2023-01-15T19:55:26.685Z,2.05
2023-01-15T19:58:00.730Z,1.50
2023-01-15T20:00:32.074Z,1.70
2023-01-15T20:03:05.983Z,1.42
2023-01-15T20:05:35.353Z,1.90
2023-01-15T20:08:05.127Z,1.60
2023-01-15T20:10:34.883Z,2.10
2023-01-15T20:13:23.911Z,1.83
2023-01-15T20:15:54.477Z,2.47
2023-01-15T20:18:25.500Z,1.95
2023-01-15T20:20:56.525Z,1.77
2023-01-15T20:23:26.064Z,1.38
2023-01-15T20:25:55.463Z,2.13
2023-01-15T20:28:25.035Z,2.00
2023-01-15T20:30:56.433Z,1.70
2023-01-15T20:33:25.930Z,2.47
2023-01-15T20:35:55.618Z,3.28
2023-01-15T20:38:25.095Z,1.63
2023-01-15T20:40:54.721Z,1.95
2023-01-15T20:43:41.629Z,1.77
2023-01-15T20:46:15.380Z,2.28
2023-01-15T20:49:02.367Z,3.28
2023-01-15T20:51:31.756Z,2.10
2023-01-15T20:54:00.981Z,2.13
2023-01-15T20:56:30.131Z,2.83
2023-01-15T20:58:59.424Z,1.83
2023-01-15T21:01:30.021Z,2.13
2023-01-15T21:03:59.103Z,2.53
2023-01-15T21:06:28.457Z,2.95
2023-01-15T21:08:57.838Z,2.58
2023-01-15T21:11:27.048Z,2.80
2023-01-15T21:13:56.443Z,2.17
2023-01-15T21:16:26.020Z,2.97
2023-01-15T21:18:56.797Z,2.10
2023-01-15T21:21:26.062Z,2.50
2023-01-15T21:23:55.566Z,2.78
2023-01-15T21:26:25.475Z,2.55
2023-01-15T21:29:01.023Z,3.03
2023-01-15T21:31:30.458Z,2.65
2023-01-15T21:34:01.429Z,2.80
2023-01-15T21:36:30.871Z,3.13
2023-01-15T21:39:00.256Z,2.25
2023-01-15T21:41:43.701Z,2.22
2023-01-15T21:44:32.935Z,2.22
2023-01-15T21:47:03.073Z,2.78
2023-01-15T21:49:34.212Z,2.65
2023-01-15T21:52:06.282Z,2.75
2023-01-15T21:54:38.438Z,2.88
2023-01-15T21:57:08.655Z,3.00
2023-01-15T21:59:40.962Z,3.85
2023-01-15T22:02:16.704Z,3.17
2023-01-15T22:04:47.583Z,2.70
2023-01-15T22:07:19.737Z,3.43
2023-01-15T22:09:48.910Z,3.13
2023-01-15T22:12:19.937Z,3.58
2023-01-15T22:14:49.596Z,7.03
2023-01-15T22:17:18.933Z,7.35
2023-01-15T22:19:51.379Z,10.55
2023-01-15T22:22:20.822Z,5.90
2023-01-15T22:24:50.055Z,4.97
2023-01-15T22:27:20.672Z,4.18
2023-01-15T22:29:50.031Z,2.63
2023-01-15T22:32:19.202Z,2.65
2023-01-15T22:34:50.297Z,3.03
2023-01-15T22:37:19.559Z,2.03
2023-01-15T22:39:50.002Z,3.15
2023-01-15T22:42:25.377Z,4.25
2023-01-15T22:45:00.505Z,2.10
2023-01-15T22:47:31.266Z,1.83
2023-01-15T22:50:03.452Z,1.83
2023-01-15T22:52:34.514Z,1.90
2023-01-15T22:55:09.072Z,1.90
2023-01-15T22:57:38.306Z,1.75
2023-01-15T23:00:08.298Z,2.67
2023-01-15T23:02:55.627Z,1.98
2023-01-15T23:05:26.386Z,2.13
2023-01-15T23:07:55.438Z,2.50
2023-01-15T23:10:27.263Z,3.15
2023-01-15T23:12:56.714Z,2.50
2023-01-15T23:15:25.908Z,2.33
2023-01-15T23:17:55.250Z,2.92
2023-01-15T23:20:29.959Z,2.35
2023-01-15T23:22:59.171Z,2.63
2023-01-15T23:25:28.471Z,3.38
2023-01-15T23:27:57.960Z,3.58
2023-01-15T23:30:26.960Z,3.78
2023-01-15T23:32:57.596Z,1.90
2023-01-15T23:35:30.201Z,2.78
2023-01-15T23:37:59.545Z,1.92
2023-01-15T23:40:29.176Z,2.42
2023-01-15T23:43:16.279Z,2.05
2023-01-15T23:46:03.053Z,3.78
2023-01-15T23:48:32.288Z,1.80
2023-01-15T23:51:03.153Z,2.15
2023-01-15T23:53:32.483Z,2.67
2023-01-15T23:56:03.825Z,1.85
2023-01-15T23:58:35.963Z,1.38
